sensor_id;sensor_type;location;lat;lon;timestamp;temperature;humidity
70851;DHT22;58475;49.662;9.636;2023-07-31T00:00:55;17.68;73.94
70851;DHT22;58475;49.662;9.636;2023-07-31T00:03:20;17.65;74.49
70851;DHT22;58475;49.662;9.636;2023-07-31T00:05:46;17.56;73.67
70851;DHT22;58475;49.662;9.636;2023-07-31T00:08:11;17.54;74.23
70851;DHT22;58475;49.662;9.636;2023-07-31T00:10:36;17.47;74.51
70851;DHT22;58475;49.662;9.636;2023-07-31T00:13:02;17.56;73.80
70851;DHT22;58475;49.662;9.636;2023-07-31T00:15:27;17.52;73.84
70851;DHT22;58475;49.662;9.636;2023-07-31T00:17:53;17.56;74.05
70851;DHT22;58475;49.662;9.636;2023-07-31T00:20:18;17.48;73.93
70851;DHT22;58475;49.662;9.636;2023-07-31T00:22:43;17.61;73.67
70851;DHT22;58475;49.662;9.636;2023-07-31T00:25:09;17.55;74.41
70851;DHT22;58475;49.662;9.636;2023-07-31T00:27:34;17.59;73.83
70851;DHT22;58475;49.662;9.636;2023-07-31T00:29:59;17.65;73.44
70851;DHT22;58475;49.662;9.636;2023-07-31T00:32:25;17.62;73.58
70851;DHT22;58475;49.662;9.636;2023-07-31T00:34:50;17.58;74.04
70851;DHT22;58475;49.662;9.636;2023-07-31T00:37:18;17.55;74.56
70851;DHT22;58475;49.662;9.636;2023-07-31T00:39:43;17.59;74.38
70851;DHT22;58475;49.662;9.636;2023-07-31T00:42:09;17.56;74.11
70851;DHT22;58475;49.662;9.636;2023-07-31T00:44:34;17.65;73.84
70851;DHT22;58475;49.662;9.636;2023-07-31T00:46:59;17.52;74.28
70851;DHT22;58475;49.662;9.636;2023-07-31T00:49:25;17.49;74.00
70851;DHT22;58475;49.662;9.636;2023-07-31T00:51:51;17.47;74.17
70851;DHT22;58475;49.662;9.636;2023-07-31T00:54:17;17.49;73.90
70851;DHT22;58475;49.662;9.636;2023-07-31T00:56:45;17.42;74.24
70851;DHT22;58475;49.662;9.636;2023-07-31T00:59:11;17.47;74.15
70851;DHT22;58475;49.662;9.636;2023-07-31T01:01:37;17.56;74.17
70851;DHT22;58475;49.662;9.636;2023-07-31T01:04:03;17.54;74.03
70851;DHT22;58475;49.662;9.636;2023-07-31T01:06:56;17.39;74.82
70851;DHT22;58475;49.662;9.636;2023-07-31T01:09:36;17.38;74.52
70851;DHT22;58475;49.662;9.636;2023-07-31T01:12:06;17.42;74.35
70851;DHT22;58475;49.662;9.636;2023-07-31T01:14:32;17.39;74.44
70851;DHT22;58475;49.662;9.636;2023-07-31T01:16:57;17.35;74.59
70851;DHT22;58475;49.662;9.636;2023-07-31T01:19:25;17.34;74.62
70851;DHT22;58475;49.662;9.636;2023-07-31T01:24:55;17.27;74.81
70851;DHT22;58475;49.662;9.636;2023-07-31T01:27:28;17.35;74.58
70851;DHT22;58475;49.662;9.636;2023-07-31T01:30:00;17.41;74.35
70851;DHT22;58475;49.662;9.636;2023-07-31T01:32:29;17.35;74.46
70851;DHT22;58475;49.662;9.636;2023-07-31T01:34:57;17.34;74.79
70851;DHT22;58475;49.662;9.636;2023-07-31T01:37:28;17.26;74.84
70851;DHT22;58475;49.662;9.636;2023-07-31T01:39:54;17.37;74.64
70851;DHT22;58475;49.662;9.636;2023-07-31T01:42:19;17.38;74.54
70851;DHT22;58475;49.662;9.636;2023-07-31T01:44:44;17.37;74.96
70851;DHT22;58475;49.662;9.636;2023-07-31T01:47:10;17.35;74.90
70851;DHT22;58475;49.662;9.636;2023-07-31T01:49:35;17.31;75.11
70851;DHT22;58475;49.662;9.636;2023-07-31T01:52:01;17.30;75.26
70851;DHT22;58475;49.662;9.636;2023-07-31T01:54:26;17.34;75.84
70851;DHT22;58475;49.662;9.636;2023-07-31T01:56:52;17.21;75.35
70851;DHT22;58475;49.662;9.636;2023-07-31T01:59:17;17.23;75.22
70851;DHT22;58475;49.662;9.636;2023-07-31T02:01:45;17.24;74.90
70851;DHT22;58475;49.662;9.636;2023-07-31T02:04:11;17.37;74.78
70851;DHT22;58475;49.662;9.636;2023-07-31T02:06:36;17.34;74.74
70851;DHT22;58475;49.662;9.636;2023-07-31T02:09:02;17.35;75.62
70851;DHT22;58475;49.662;9.636;2023-07-31T02:11:31;17.18;75.30
70851;DHT22;58475;49.662;9.636;2023-07-31T02:13:56;17.28;75.00
70851;DHT22;58475;49.662;9.636;2023-07-31T02:16:21;17.24;75.33
70851;DHT22;58475;49.662;9.636;2023-07-31T02:18:47;17.37;74.94
70851;DHT22;58475;49.662;9.636;2023-07-31T02:21:12;17.20;75.32
70851;DHT22;58475;49.662;9.636;2023-07-31T02:23:37;17.21;75.35
70851;DHT22;58475;49.662;9.636;2023-07-31T02:26:04;17.24;75.18
70851;DHT22;58475;49.662;9.636;2023-07-31T02:28:30;17.27;75.05
70851;DHT22;58475;49.662;9.636;2023-07-31T02:30:56;17.23;75.58
70851;DHT22;58475;49.662;9.636;2023-07-31T02:33:21;17.23;75.33
70851;DHT22;58475;49.662;9.636;2023-07-31T02:35:46;17.20;75.30
70851;DHT22;58475;49.662;9.636;2023-07-31T02:38:12;17.14;75.42
70851;DHT22;58475;49.662;9.636;2023-07-31T02:40:39;17.11;75.77
70851;DHT22;58475;49.662;9.636;2023-07-31T02:43:04;17.18;75.53
70851;DHT22;58475;49.662;9.636;2023-07-31T02:45:30;17.21;75.56
70851;DHT22;58475;49.662;9.636;2023-07-31T02:47:55;17.20;75.52
70851;DHT22;58475;49.662;9.636;2023-07-31T02:50:20;17.21;75.78
70851;DHT22;58475;49.662;9.636;2023-07-31T02:52:46;17.23;75.65
70851;DHT22;58475;49.662;9.636;2023-07-31T02:55:11;17.20;75.98
70851;DHT22;58475;49.662;9.636;2023-07-31T02:57:37;17.18;75.97
70851;DHT22;58475;49.662;9.636;2023-07-31T03:00:02;17.11;75.99
70851;DHT22;58475;49.662;9.636;2023-07-31T03:02:31;17.23;75.74
70851;DHT22;58475;49.662;9.636;2023-07-31T03:04:56;17.17;75.88
70851;DHT22;58475;49.662;9.636;2023-07-31T03:07:21;17.17;75.97
70851;DHT22;58475;49.662;9.636;2023-07-31T03:09:48;17.20;75.66
70851;DHT22;58475;49.662;9.636;2023-07-31T03:12:14;17.17;75.47
70851;DHT22;58475;49.662;9.636;2023-07-31T03:14:39;17.16;75.83
70851;DHT22;58475;49.662;9.636;2023-07-31T03:17:05;17.18;76.14
70851;DHT22;58475;49.662;9.636;2023-07-31T03:19:31;17.10;76.10
70851;DHT22;58475;49.662;9.636;2023-07-31T03:21:57;17.17;75.53
70851;DHT22;58475;49.662;9.636;2023-07-31T03:24:22;17.07;75.93
70851;DHT22;58475;49.662;9.636;2023-07-31T03:26:48;17.11;75.73
70851;DHT22;58475;49.662;9.636;2023-07-31T03:29:13;17.08;75.86
70851;DHT22;58475;49.662;9.636;2023-07-31T03:31:39;17.11;75.75
70851;DHT22;58475;49.662;9.636;2023-07-31T03:34:04;17.17;75.51
70851;DHT22;58475;49.662;9.636;2023-07-31T03:36:30;17.10;75.94
70851;DHT22;58475;49.662;9.636;2023-07-31T03:38:55;17.16;75.65
70851;DHT22;58475;49.662;9.636;2023-07-31T03:41:20;17.17;75.39
70851;DHT22;58475;49.662;9.636;2023-07-31T03:43:49;17.17;75.97
70851;DHT22;58475;49.662;9.636;2023-07-31T03:46:16;17.24;75.68
70851;DHT22;58475;49.662;9.636;2023-07-31T03:48:41;17.21;75.74
70851;DHT22;58475;49.662;9.636;2023-07-31T03:51:07;17.16;76.22
70851;DHT22;58475;49.662;9.636;2023-07-31T03:53:35;17.11;75.71
70851;DHT22;58475;49.662;9.636;2023-07-31T03:56:00;17.20;75.49
70851;DHT22;58475;49.662;9.636;2023-07-31T03:58:26;17.27;74.81
70851;DHT22;58475;49.662;9.636;2023-07-31T04:00:51;17.27;75.11
70851;DHT22;58475;49.662;9.636;2023-07-31T04:03:16;17.30;74.76
70851;DHT22;58475;49.662;9.636;2023-07-31T04:05:42;17.35;74.74
70851;DHT22;58475;49.662;9.636;2023-07-31T04:08:07;17.27;74.88
70851;DHT22;58475;49.662;9.636;2023-07-31T04:10:33;17.31;74.69
70851;DHT22;58475;49.662;9.636;2023-07-31T04:12:59;17.34;74.53
70851;DHT22;58475;49.662;9.636;2023-07-31T04:15:25;17.35;74.53
70851;DHT22;58475;49.662;9.636;2023-07-31T04:17:50;17.35;74.93
70851;DHT22;58475;49.662;9.636;2023-07-31T04:20:16;17.32;74.70
70851;DHT22;58475;49.662;9.636;2023-07-31T04:22:42;17.37;75.19
70851;DHT22;58475;49.662;9.636;2023-07-31T04:25:07;17.39;74.43
70851;DHT22;58475;49.662;9.636;2023-07-31T04:27:33;17.35;74.22
70851;DHT22;58475;49.662;9.636;2023-07-31T04:29:59;17.37;74.37
70851;DHT22;58475;49.662;9.636;2023-07-31T04:32:25;17.35;74.52
70851;DHT22;58475;49.662;9.636;2023-07-31T04:34:50;17.37;75.13
70851;DHT22;58475;49.662;9.636;2023-07-31T04:37:15;17.35;74.47
70851;DHT22;58475;49.662;9.636;2023-07-31T04:39:41;17.45;74.35
70851;DHT22;58475;49.662;9.636;2023-07-31T04:42:06;17.41;74.50
70851;DHT22;58475;49.662;9.636;2023-07-31T04:44:31;17.37;74.44
70851;DHT22;58475;49.662;9.636;2023-07-31T04:46:57;17.34;74.92
70851;DHT22;58475;49.662;9.636;2023-07-31T04:49:22;17.41;74.72
70851;DHT22;58475;49.662;9.636;2023-07-31T04:51:47;17.37;74.64
70851;DHT22;58475;49.662;9.636;2023-07-31T04:54:13;17.44;74.36
70851;DHT22;58475;49.662;9.636;2023-07-31T04:56:40;17.44;73.89
70851;DHT22;58475;49.662;9.636;2023-07-31T04:59:06;17.41;74.02
70851;DHT22;58475;49.662;9.636;2023-07-31T05:01:32;17.47;73.95
70851;DHT22;58475;49.662;9.636;2023-07-31T05:03:57;17.51;73.68
70851;DHT22;58475;49.662;9.636;2023-07-31T05:06:23;17.52;74.16
70851;DHT22;58475;49.662;9.636;2023-07-31T05:08:48;17.51;74.05
70851;DHT22;58475;49.662;9.636;2023-07-31T05:11:13;17.55;74.19
70851;DHT22;58475;49.662;9.636;2023-07-31T05:13:39;17.65;73.66
70851;DHT22;58475;49.662;9.636;2023-07-31T05:16:04;17.68;73.65
70851;DHT22;58475;49.662;9.636;2023-07-31T05:18:29;17.64;73.20
70851;DHT22;58475;49.662;9.636;2023-07-31T05:20:55;17.66;73.81
70851;DHT22;58475;49.662;9.636;2023-07-31T05:23:20;17.79;73.28
70851;DHT22;58475;49.662;9.636;2023-07-31T05:25:46;17.85;73.35
70851;DHT22;58475;49.662;9.636;2023-07-31T05:28:12;17.87;73.59
70851;DHT22;58475;49.662;9.636;2023-07-31T05:30:37;17.87;73.30
70851;DHT22;58475;49.662;9.636;2023-07-31T05:33:03;17.87;73.36
70851;DHT22;58475;49.662;9.636;2023-07-31T05:35:28;17.97;73.19
70851;DHT22;58475;49.662;9.636;2023-07-31T05:37:54;18.06;73.17
70851;DHT22;58475;49.662;9.636;2023-07-31T05:40:19;17.97;73.46
70851;DHT22;58475;49.662;9.636;2023-07-31T05:42:44;18.02;73.13
70851;DHT22;58475;49.662;9.636;2023-07-31T05:45:10;17.97;73.00
70851;DHT22;58475;49.662;9.636;2023-07-31T05:47:35;17.97;72.80
70851;DHT22;58475;49.662;9.636;2023-07-31T05:50:01;17.97;73.08
70851;DHT22;58475;49.662;9.636;2023-07-31T05:52:26;18.02;72.84
70851;DHT22;58475;49.662;9.636;2023-07-31T05:54:54;18.05;72.93
70851;DHT22;58475;49.662;9.636;2023-07-31T05:57:19;18.13;72.59
70851;DHT22;58475;49.662;9.636;2023-07-31T05:59:45;18.10;73.41
70851;DHT22;58475;49.662;9.636;2023-07-31T06:02:10;18.18;72.49
70851;DHT22;58475;49.662;9.636;2023-07-31T06:04:36;18.20;72.27
70851;DHT22;58475;49.662;9.636;2023-07-31T06:07:01;18.38;72.21
70851;DHT22;58475;49.662;9.636;2023-07-31T06:09:28;18.38;72.54
70851;DHT22;58475;49.662;9.636;2023-07-31T06:11:53;18.63;71.56
70851;DHT22;58475;49.662;9.636;2023-07-31T06:14:18;18.60;71.84
70851;DHT22;58475;49.662;9.636;2023-07-31T06:16:44;18.54;71.46
70851;DHT22;58475;49.662;9.636;2023-07-31T06:19:10;18.43;72.20
70851;DHT22;58475;49.662;9.636;2023-07-31T06:21:35;18.44;71.76
70851;DHT22;58475;49.662;9.636;2023-07-31T06:24:03;18.53;71.38
70851;DHT22;58475;49.662;9.636;2023-07-31T06:26:29;18.51;71.50
70851;DHT22;58475;49.662;9.636;2023-07-31T06:28:54;18.46;72.40
70851;DHT22;58475;49.662;9.636;2023-07-31T06:31:19;18.47;71.84
70851;DHT22;58475;49.662;9.636;2023-07-31T06:33:51;18.47;72.14
70851;DHT22;58475;49.662;9.636;2023-07-31T06:36:16;18.54;72.06
70851;DHT22;58475;49.662;9.636;2023-07-31T06:38:42;18.58;71.38
70851;DHT22;58475;49.662;9.636;2023-07-31T06:41:07;18.58;71.84
70851;DHT22;58475;49.662;9.636;2023-07-31T06:43:33;18.58;71.36
70851;DHT22;58475;49.662;9.636;2023-07-31T06:46:04;18.57;72.41
70851;DHT22;58475;49.662;9.636;2023-07-31T06:48:29;18.53;72.37
70851;DHT22;58475;49.662;9.636;2023-07-31T06:50:55;18.54;72.08
70851;DHT22;58475;49.662;9.636;2023-07-31T06:53:20;18.67;72.01
70851;DHT22;58475;49.662;9.636;2023-07-31T06:55:45;18.63;72.26
70851;DHT22;58475;49.662;9.636;2023-07-31T06:58:11;18.76;71.62
70851;DHT22;58475;49.662;9.636;2023-07-31T07:00:36;18.92;71.26
70851;DHT22;58475;49.662;9.636;2023-07-31T07:03:01;19.18;71.03
70851;DHT22;58475;49.662;9.636;2023-07-31T07:05:26;19.11;70.44
70851;DHT22;58475;49.662;9.636;2023-07-31T07:08:02;19.19;70.26
70851;DHT22;58475;49.662;9.636;2023-07-31T07:10:28;19.40;70.26
70851;DHT22;58475;49.662;9.636;2023-07-31T07:12:54;19.60;70.05
70851;DHT22;58475;49.662;9.636;2023-07-31T07:15:23;20.18;69.26
70851;DHT22;58475;49.662;9.636;2023-07-31T07:17:48;19.91;68.89
70851;DHT22;58475;49.662;9.636;2023-07-31T07:20:13;19.54;69.72
70851;DHT22;58475;49.662;9.636;2023-07-31T07:22:39;19.50;70.27
70851;DHT22;58475;49.662;9.636;2023-07-31T07:25:04;19.52;69.65
70851;DHT22;58475;49.662;9.636;2023-07-31T07:27:30;19.52;70.43
70851;DHT22;58475;49.662;9.636;2023-07-31T07:29:55;19.39;70.81
70851;DHT22;58475;49.662;9.636;2023-07-31T07:32:21;19.39;70.19
70851;DHT22;58475;49.662;9.636;2023-07-31T07:34:48;19.25;70.48
70851;DHT22;58475;49.662;9.636;2023-07-31T07:37:13;19.29;70.41
70851;DHT22;58475;49.662;9.636;2023-07-31T07:39:39;19.26;71.35
70851;DHT22;58475;49.662;9.636;2023-07-31T07:42:04;19.30;70.25
70851;DHT22;58475;49.662;9.636;2023-07-31T07:44:30;19.45;70.56
70851;DHT22;58475;49.662;9.636;2023-07-31T07:46:55;19.63;69.88
70851;DHT22;58475;49.662;9.636;2023-07-31T07:49:20;19.91;69.42
70851;DHT22;58475;49.662;9.636;2023-07-31T07:51:48;19.87;68.98
70851;DHT22;58475;49.662;9.636;2023-07-31T07:54:13;19.90;69.87
70851;DHT22;58475;49.662;9.636;2023-07-31T07:56:39;19.85;70.40
70851;DHT22;58475;49.662;9.636;2023-07-31T07:59:04;20.07;69.45
70851;DHT22;58475;49.662;9.636;2023-07-31T08:01:30;20.17;69.05
70851;DHT22;58475;49.662;9.636;2023-07-31T08:03:55;20.99;68.33
70851;DHT22;58475;49.662;9.636;2023-07-31T08:06:20;20.83;68.70
70851;DHT22;58475;49.662;9.636;2023-07-31T08:08:46;21.57;66.33
70851;DHT22;58475;49.662;9.636;2023-07-31T08:11:11;21.28;66.85
70851;DHT22;58475;49.662;9.636;2023-07-31T08:13:37;21.45;66.68
70851;DHT22;58475;49.662;9.636;2023-07-31T08:16:04;20.94;66.09
70851;DHT22;58475;49.662;9.636;2023-07-31T08:18:30;21.02;66.70
70851;DHT22;58475;49.662;9.636;2023-07-31T08:20:56;20.97;67.78
70851;DHT22;58475;49.662;9.636;2023-07-31T08:23:21;21.00;67.12
70851;DHT22;58475;49.662;9.636;2023-07-31T08:25:47;20.96;67.44
70851;DHT22;58475;49.662;9.636;2023-07-31T08:28:15;21.13;67.95
70851;DHT22;58475;49.662;9.636;2023-07-31T08:30:41;21.33;67.13
70851;DHT22;58475;49.662;9.636;2023-07-31T08:33:09;21.44;66.69
70851;DHT22;58475;49.662;9.636;2023-07-31T08:35:38;21.42;65.84
70851;DHT22;58475;49.662;9.636;2023-07-31T08:38:04;21.20;67.13
70851;DHT22;58475;49.662;9.636;2023-07-31T08:40:29;20.99;67.52
70851;DHT22;58475;49.662;9.636;2023-07-31T08:42:55;20.96;67.55
70851;DHT22;58475;49.662;9.636;2023-07-31T08:45:27;21.31;66.95
70851;DHT22;58475;49.662;9.636;2023-07-31T08:47:53;22.09;65.18
70851;DHT22;58475;49.662;9.636;2023-07-31T08:50:20;22.14;65.98
70851;DHT22;58475;49.662;9.636;2023-07-31T08:52:47;21.99;65.05
70851;DHT22;58475;49.662;9.636;2023-07-31T08:55:12;21.83;66.92
70851;DHT22;58475;49.662;9.636;2023-07-31T08:57:38;21.55;66.40
70851;DHT22;58475;49.662;9.636;2023-07-31T09:00:05;21.40;66.79
70851;DHT22;58475;49.662;9.636;2023-07-31T09:02:39;21.82;66.52
70851;DHT22;58475;49.662;9.636;2023-07-31T09:05:10;21.82;65.11
70851;DHT22;58475;49.662;9.636;2023-07-31T09:07:37;22.06;65.67
70851;DHT22;58475;49.662;9.636;2023-07-31T09:10:04;21.81;65.75
70851;DHT22;58475;49.662;9.636;2023-07-31T09:12:30;22.23;66.07
70851;DHT22;58475;49.662;9.636;2023-07-31T09:14:57;22.51;65.45
70851;DHT22;58475;49.662;9.636;2023-07-31T09:17:36;22.35;63.90
70851;DHT22;58475;49.662;9.636;2023-07-31T09:20:16;22.13;65.20
70851;DHT22;58475;49.662;9.636;2023-07-31T09:22:49;21.96;65.50
70851;DHT22;58475;49.662;9.636;2023-07-31T09:25:24;21.59;66.48
70851;DHT22;58475;49.662;9.636;2023-07-31T09:27:57;21.77;65.34
70851;DHT22;58475;49.662;9.636;2023-07-31T09:30:23;21.58;65.72
70851;DHT22;58475;49.662;9.636;2023-07-31T09:32:50;21.62;65.66
70851;DHT22;58475;49.662;9.636;2023-07-31T09:35:28;21.45;67.14
70851;DHT22;58475;49.662;9.636;2023-07-31T09:37:56;21.27;66.42
70851;DHT22;58475;49.662;9.636;2023-07-31T09:40:39;21.10;68.05
70851;DHT22;58475;49.662;9.636;2023-07-31T09:43:10;21.15;67.08
70851;DHT22;58475;49.662;9.636;2023-07-31T09:45:38;21.13;65.99
70851;DHT22;58475;49.662;9.636;2023-07-31T09:48:12;21.23;66.72
70851;DHT22;58475;49.662;9.636;2023-07-31T09:50:38;21.40;66.40
70851;DHT22;58475;49.662;9.636;2023-07-31T09:53:05;21.23;65.53
70851;DHT22;58475;49.662;9.636;2023-07-31T09:55:31;21.34;67.05
70851;DHT22;58475;49.662;9.636;2023-07-31T09:58:03;21.37;66.47
70851;DHT22;58475;49.662;9.636;2023-07-31T10:00:30;21.44;67.51
70851;DHT22;58475;49.662;9.636;2023-07-31T10:02:58;21.44;65.89
70851;DHT22;58475;49.662;9.636;2023-07-31T10:05:31;21.31;66.50
70851;DHT22;58475;49.662;9.636;2023-07-31T10:07:57;21.31;66.35
70851;DHT22;58475;49.662;9.636;2023-07-31T10:10:22;21.57;65.84
70851;DHT22;58475;49.662;9.636;2023-07-31T10:12:49;21.44;65.77
70851;DHT22;58475;49.662;9.636;2023-07-31T10:15:15;21.47;66.41
70851;DHT22;58475;49.662;9.636;2023-07-31T10:17:41;21.55;66.37
70851;DHT22;58475;49.662;9.636;2023-07-31T10:20:07;21.50;65.30
70851;DHT22;58475;49.662;9.636;2023-07-31T10:22:32;21.58;65.09
70851;DHT22;58475;49.662;9.636;2023-07-31T10:24:59;21.50;65.12
70851;DHT22;58475;49.662;9.636;2023-07-31T10:27:25;21.47;64.72
70851;DHT22;58475;49.662;9.636;2023-07-31T10:29:52;21.57;64.88
70851;DHT22;58475;49.662;9.636;2023-07-31T10:32:19;21.41;64.27
70851;DHT22;58475;49.662;9.636;2023-07-31T10:34:45;21.52;63.53
70851;DHT22;58475;49.662;9.636;2023-07-31T10:37:25;21.69;63.47
70851;DHT22;58475;49.662;9.636;2023-07-31T10:40:03;21.88;63.92
70851;DHT22;58475;49.662;9.636;2023-07-31T10:42:37;22.16;63.70
70851;DHT22;58475;49.662;9.636;2023-07-31T10:45:08;22.43;62.69
70851;DHT22;58475;49.662;9.636;2023-07-31T10:47:45;22.50;62.52
70851;DHT22;58475;49.662;9.636;2023-07-31T10:50:30;22.60;61.54
70851;DHT22;58475;49.662;9.636;2023-07-31T10:53:00;22.44;62.00
70851;DHT22;58475;49.662;9.636;2023-07-31T10:55:41;22.50;61.30
70851;DHT22;58475;49.662;9.636;2023-07-31T10:58:12;22.46;61.62
70851;DHT22;58475;49.662;9.636;2023-07-31T11:00:45;22.91;62.75
70851;DHT22;58475;49.662;9.636;2023-07-31T11:06:03;22.80;60.22
70851;DHT22;58475;49.662;9.636;2023-07-31T11:08:30;23.52;60.00
70851;DHT22;58475;49.662;9.636;2023-07-31T11:13:28;23.71;59.29
70851;DHT22;58475;49.662;9.636;2023-07-31T11:15:53;23.84;59.18
70851;DHT22;58475;49.662;9.636;2023-07-31T11:18:19;24.07;58.29
70851;DHT22;58475;49.662;9.636;2023-07-31T11:20:44;24.47;57.52
70851;DHT22;58475;49.662;9.636;2023-07-31T11:23:10;24.68;57.90
70851;DHT22;58475;49.662;9.636;2023-07-31T11:25:37;23.80;57.79
70851;DHT22;58475;49.662;9.636;2023-07-31T11:28:06;23.70;58.21
70851;DHT22;58475;49.662;9.636;2023-07-31T11:30:33;23.42;59.15
70851;DHT22;58475;49.662;9.636;2023-07-31T11:33:00;23.23;60.18
70851;DHT22;58475;49.662;9.636;2023-07-31T11:35:26;23.16;60.49
70851;DHT22;58475;49.662;9.636;2023-07-31T11:37:51;23.07;60.30
70851;DHT22;58475;49.662;9.636;2023-07-31T11:40:16;23.22;60.64
70851;DHT22;58475;49.662;9.636;2023-07-31T11:42:42;23.30;60.23
70851;DHT22;58475;49.662;9.636;2023-07-31T11:45:08;23.21;60.32
70851;DHT22;58475;49.662;9.636;2023-07-31T11:47:37;23.04;59.28
70851;DHT22;58475;49.662;9.636;2023-07-31T11:50:10;23.30;60.37
70851;DHT22;58475;49.662;9.636;2023-07-31T11:52:40;23.49;60.29
70851;DHT22;58475;49.662;9.636;2023-07-31T11:55:07;23.46;59.89
70851;DHT22;58475;49.662;9.636;2023-07-31T11:57:35;23.37;59.85
70851;DHT22;58475;49.662;9.636;2023-07-31T12:00:01;22.97;58.95
70851;DHT22;58475;49.662;9.636;2023-07-31T12:02:29;23.23;59.89
70851;DHT22;58475;49.662;9.636;2023-07-31T12:04:55;23.58;58.86
70851;DHT22;58475;49.662;9.636;2023-07-31T12:07:20;23.52;59.79
70851;DHT22;58475;49.662;9.636;2023-07-31T12:09:55;23.30;58.79
70851;DHT22;58475;49.662;9.636;2023-07-31T12:12:22;23.66;60.07
70851;DHT22;58475;49.662;9.636;2023-07-31T12:14:48;23.60;59.15
70851;DHT22;58475;49.662;9.636;2023-07-31T12:17:16;23.26;60.24
70851;DHT22;58475;49.662;9.636;2023-07-31T12:19:42;23.22;59.10
70851;DHT22;58475;49.662;9.636;2023-07-31T12:22:14;23.35;59.32
70851;DHT22;58475;49.662;9.636;2023-07-31T12:24:42;23.48;60.02
70851;DHT22;58475;49.662;9.636;2023-07-31T12:27:13;24.29;61.21
70851;DHT22;58475;49.662;9.636;2023-07-31T12:29:42;24.69;57.29
70851;DHT22;58475;49.662;9.636;2023-07-31T12:32:25;23.87;58.09
70851;DHT22;58475;49.662;9.636;2023-07-31T12:34:51;23.49;59.35
70851;DHT22;58475;49.662;9.636;2023-07-31T12:37:16;23.05;58.76
70851;DHT22;58475;49.662;9.636;2023-07-31T12:39:42;23.49;61.11
70851;DHT22;58475;49.662;9.636;2023-07-31T12:42:07;23.73;59.73
70851;DHT22;58475;49.662;9.636;2023-07-31T12:44:33;23.74;59.23
70851;DHT22;58475;49.662;9.636;2023-07-31T12:46:58;23.49;59.10
70851;DHT22;58475;49.662;9.636;2023-07-31T12:49:24;23.50;60.62
70851;DHT22;58475;49.662;9.636;2023-07-31T12:51:49;23.12;61.05
70851;DHT22;58475;49.662;9.636;2023-07-31T12:54:14;23.58;60.69
70851;DHT22;58475;49.662;9.636;2023-07-31T12:56:40;23.71;59.78
70851;DHT22;58475;49.662;9.636;2023-07-31T12:59:05;23.59;59.17
70851;DHT22;58475;49.662;9.636;2023-07-31T13:01:32;23.55;59.76
70851;DHT22;58475;49.662;9.636;2023-07-31T13:03:58;23.77;60.58
70851;DHT22;58475;49.662;9.636;2023-07-31T13:06:24;23.86;58.42
70851;DHT22;58475;49.662;9.636;2023-07-31T13:08:50;24.29;57.90
70851;DHT22;58475;49.662;9.636;2023-07-31T13:11:15;24.24;59.60
70851;DHT22;58475;49.662;9.636;2023-07-31T13:13:40;23.87;58.91
70851;DHT22;58475;49.662;9.636;2023-07-31T13:16:06;23.62;59.83
70851;DHT22;58475;49.662;9.636;2023-07-31T13:18:31;23.41;59.73
70851;DHT22;58475;49.662;9.636;2023-07-31T13:20:56;23.08;61.04
70851;DHT22;58475;49.662;9.636;2023-07-31T13:23:22;23.26;60.69
70851;DHT22;58475;49.662;9.636;2023-07-31T13:25:47;23.35;60.80
70851;DHT22;58475;49.662;9.636;2023-07-31T13:28:13;23.08;60.39
70851;DHT22;58475;49.662;9.636;2023-07-31T13:30:38;23.32;60.77
70851;DHT22;58475;49.662;9.636;2023-07-31T13:33:03;23.37;59.50
70851;DHT22;58475;49.662;9.636;2023-07-31T13:35:29;23.48;60.14
70851;DHT22;58475;49.662;9.636;2023-07-31T13:37:56;23.52;59.64
70851;DHT22;58475;49.662;9.636;2023-07-31T13:40:22;23.65;59.73
70851;DHT22;58475;49.662;9.636;2023-07-31T13:42:47;23.76;60.00
70851;DHT22;58475;49.662;9.636;2023-07-31T13:45:13;23.53;59.53
70851;DHT22;58475;49.662;9.636;2023-07-31T13:47:39;23.80;59.64
70851;DHT22;58475;49.662;9.636;2023-07-31T13:50:04;23.89;59.64
70851;DHT22;58475;49.662;9.636;2023-07-31T13:52:30;23.83;60.29
70851;DHT22;58475;49.662;9.636;2023-07-31T13:54:55;24.17;60.93
70851;DHT22;58475;49.662;9.636;2023-07-31T13:57:20;24.06;59.94
70851;DHT22;58475;49.662;9.636;2023-07-31T13:59:46;23.60;60.04
70851;DHT22;58475;49.662;9.636;2023-07-31T14:02:11;23.56;60.94
70851;DHT22;58475;49.662;9.636;2023-07-31T14:04:37;23.23;60.93
70851;DHT22;58475;49.662;9.636;2023-07-31T14:07:02;23.26;61.92
70851;DHT22;58475;49.662;9.636;2023-07-31T14:09:29;23.23;61.17
70851;DHT22;58475;49.662;9.636;2023-07-31T14:11:55;23.39;60.96
70851;DHT22;58475;49.662;9.636;2023-07-31T14:14:20;23.39;62.06
70851;DHT22;58475;49.662;9.636;2023-07-31T14:16:45;23.28;60.96
70851;DHT22;58475;49.662;9.636;2023-07-31T14:19:11;23.26;61.58
70851;DHT22;58475;49.662;9.636;2023-07-31T14:21:36;23.02;62.30
70851;DHT22;58475;49.662;9.636;2023-07-31T14:24:01;23.16;61.49
70851;DHT22;58475;49.662;9.636;2023-07-31T14:26:27;23.09;61.35
70851;DHT22;58475;49.662;9.636;2023-07-31T14:28:52;22.97;62.13
70851;DHT22;58475;49.662;9.636;2023-07-31T14:31:17;22.84;61.95
70851;DHT22;58475;49.662;9.636;2023-07-31T14:33:43;22.95;61.97
70851;DHT22;58475;49.662;9.636;2023-07-31T14:36:08;22.75;62.28
70851;DHT22;58475;49.662;9.636;2023-07-31T14:38:33;22.65;62.77
70851;DHT22;58475;49.662;9.636;2023-07-31T14:40:59;22.68;63.62
70851;DHT22;58475;49.662;9.636;2023-07-31T14:43:24;22.65;63.43
70851;DHT22;58475;49.662;9.636;2023-07-31T14:45:50;22.51;64.69
70851;DHT22;58475;49.662;9.636;2023-07-31T14:48:15;22.49;63.59
70851;DHT22;58475;49.662;9.636;2023-07-31T14:50:40;22.65;63.42
70851;DHT22;58475;49.662;9.636;2023-07-31T14:53:06;22.70;63.69
70851;DHT22;58475;49.662;9.636;2023-07-31T14:55:31;22.63;63.43
70851;DHT22;58475;49.662;9.636;2023-07-31T14:57:57;22.70;63.94
70851;DHT22;58475;49.662;9.636;2023-07-31T15:00:22;22.59;63.16
70851;DHT22;58475;49.662;9.636;2023-07-31T15:02:49;22.70;63.00
70851;DHT22;58475;49.662;9.636;2023-07-31T15:05:14;22.92;62.70
70851;DHT22;58475;49.662;9.636;2023-07-31T15:07:40;23.15;64.20
70851;DHT22;58475;49.662;9.636;2023-07-31T15:10:06;23.32;62.65
70851;DHT22;58475;49.662;9.636;2023-07-31T15:12:32;23.46;61.79
70851;DHT22;58475;49.662;9.636;2023-07-31T15:14:57;23.66;62.16
70851;DHT22;58475;49.662;9.636;2023-07-31T15:17:22;23.45;62.51
70851;DHT22;58475;49.662;9.636;2023-07-31T15:19:48;23.30;62.35
70851;DHT22;58475;49.662;9.636;2023-07-31T15:22:14;23.07;62.76
70851;DHT22;58475;49.662;9.636;2023-07-31T15:24:39;23.08;62.80
70851;DHT22;58475;49.662;9.636;2023-07-31T15:27:05;23.00;63.50
70851;DHT22;58475;49.662;9.636;2023-07-31T15:29:30;23.02;62.95
70851;DHT22;58475;49.662;9.636;2023-07-31T15:31:56;23.05;63.16
70851;DHT22;58475;49.662;9.636;2023-07-31T15:34:21;22.86;63.12